Elgin, IL (60120)

12:34 PM CDT en Mayo 22, 2015 (GMT -0500)
Trout Park | | Change Station
CLOSE
Current Station
Estación meteorológica personal
Location: Elgin, IL
Altura: 817 ft
Estaciones meteorológicas cercanas

Alt 817 ft 42.06 °N, 88.27 °W | Updated 20 seconds ago

Despejado
Despejado
70.5 ° F
Sensación térmica 75 ° F
N
3.8
Viento Variable Viento desde Norte
Gusts 6.7 mph

Hoy
Alta -- | Baja -- ° F
--% Posibilidad de precipitaciones
Ayer
Alta -- | Baja -- ° F
Precip. -- pul
5:26 AM 8:13 PM
Creciente, 22% visible
Presión 30.22 pul
Visibilidad 10.0 Millas
Nubes Despejado
Índice de calor 75 ° F
Punto de rocío 29 ° F
Humedad 21%
Precipitaciones 0.00 pul
Espesor de la nieve No disponible.
UV 11 de una escala de 12
Polen 8.00 de una escala de 12
Calidad del aire No disponible.
Flu Activity Local Activity
METAR KDPA 221652Z 04007KT 10SM CLR 19/03 A3022 RMK AO2 SLP233 T01890028

More Conditions Fewer Conditions

Presión 30.22 pul
Visibilidad 10.0 Millas
Nubes Despejado
Índice de calor 75 ° F
Punto de rocío 29 ° F
Humedad 21%
Precipitaciones 0.00 pul
Espesor de la nieve No disponible.
UV 11 de una escala de 12
Polen 8.00 de una escala de 12
Calidad del aire No disponible.
Flu Activity Local Activity
METAR KDPA 221652Z 04007KT 10SM CLR 19/03 A3022 RMK AO2 SLP233 T01890028

More Conditions Fewer Conditions

10-Day Weather Forecast

Almanac

Astronomía

May. 22, 2015 Salida Puesta
Hora real
Crepúsculo civil
Crepúsculo náutico
Crepúsculo astronómico
Luna
Horas de luz
Horas de luz
Tomorrow will be .
, % of the Moon is Illuminated

Extremos de hoy

Máximos del estado Bajos del estado

Community

WunderPhotos

Upload Photos

1,823,268 ¡fotos cargadas!

WunderBlogs® & News

Nearby

Calidad del aire

  Calidad del aire Índice AQ Contaminante
Not available.

Grosos de nieve

Estación Profundido Altura

Actividad de terremotos

Ciudad Distance Mag. Tiempo y dato
Magnitud mínima muestra es 2,5.

Temperaturas de aguas costeras

Lugar Temperatura

Stations

Estaciones meteorológicas cercanas

Ubicación de la estación Temp. Vientos helados Punto de rocío Humedad Viento Precip. Alt Actualizado Tipo